sensor_id;sensor_type;location;lat;lon;timestamp;temperature;humidity
5023;DHT22;2530;47.990;7.866;2023-02-28T00:02:20;1.10;1.00
5023;DHT22;2530;47.990;7.866;2023-02-28T00:04:45;1.10;99.90
5023;DHT22;2530;47.990;7.866;2023-02-28T00:07:18;1.00;99.90
5023;DHT22;2530;47.990;7.866;2023-02-28T00:09:44;1.00;99.90
5023;DHT22;2530;47.990;7.866;2023-02-28T00:12:09;1.00;99.90
5023;DHT22;2530;47.990;7.866;2023-02-28T00:14:36;1.10;99.90
5023;DHT22;2530;47.990;7.866;2023-02-28T00:17:01;0.90;99.90
5023;DHT22;2530;47.990;7.866;2023-02-28T00:19:27;1.10;99.90
5023;DHT22;2530;47.990;7.866;2023-02-28T00:21:53;1.00;99.90
5023;DHT22;2530;47.990;7.866;2023-02-28T00:24:18;1.20;99.90
5023;DHT22;2530;47.990;7.866;2023-02-28T00:26:44;1.40;99.90
5023;DHT22;2530;47.990;7.866;2023-02-28T00:34:01;1.20;99.90
5023;DHT22;2530;47.990;7.866;2023-02-28T00:36:27;1.20;99.90
5023;DHT22;2530;47.990;7.866;2023-02-28T00:38:52;1.10;99.90
5023;DHT22;2530;47.990;7.866;2023-02-28T00:43:44;1.20;99.90
5023;DHT22;2530;47.990;7.866;2023-02-28T00:46:09;1.60;99.90
5023;DHT22;2530;47.990;7.866;2023-02-28T00:48:35;1.20;1.00
5023;DHT22;2530;47.990;7.866;2023-02-28T00:51:01;1.20;99.90
5023;DHT22;2530;47.990;7.866;2023-02-28T00:53:27;1.20;99.90
5023;DHT22;2530;47.990;7.866;2023-02-28T00:55:53;1.20;99.90
5023;DHT22;2530;47.990;7.866;2023-02-28T00:58:18;1.40;99.90
5023;DHT22;2530;47.990;7.866;2023-02-28T01:00:44;1.00;99.90
5023;DHT22;2530;47.990;7.866;2023-02-28T01:03:18;1.20;1.00
5023;DHT22;2530;47.990;7.866;2023-02-28T01:05:44;1.30;99.90
5023;DHT22;2530;47.990;7.866;2023-02-28T01:08:09;2.00;99.90
5023;DHT22;2530;47.990;7.866;2023-02-28T01:10:35;1.20;99.90
5023;DHT22;2530;47.990;7.866;2023-02-28T01:13:02;1.30;1.00
5023;DHT22;2530;47.990;7.866;2023-02-28T01:15:27;1.30;99.90
5023;DHT22;2530;47.990;7.866;2023-02-28T01:17:53;1.60;1.00
5023;DHT22;2530;47.990;7.866;2023-02-28T01:20:18;1.30;99.90
5023;DHT22;2530;47.990;7.866;2023-02-28T01:22:44;1.20;99.90
5023;DHT22;2530;47.990;7.866;2023-02-28T01:25:09;1.20;1.00
5023;DHT22;2530;47.990;7.866;2023-02-28T01:27:35;1.30;99.90
5023;DHT22;2530;47.990;7.866;2023-02-28T01:30:01;1.40;99.90
5023;DHT22;2530;47.990;7.866;2023-02-28T01:32:27;1.20;1.00
5023;DHT22;2530;47.990;7.866;2023-02-28T01:34:53;1.10;1.00
5023;DHT22;2530;47.990;7.866;2023-02-28T01:37:18;1.30;99.90
5023;DHT22;2530;47.990;7.866;2023-02-28T01:39:44;1.40;99.90
5023;DHT22;2530;47.990;7.866;2023-02-28T01:42:10;1.50;1.00
5023;DHT22;2530;47.990;7.866;2023-02-28T01:47:20;1.50;1.00
5023;DHT22;2530;47.990;7.866;2023-02-28T01:49:46;1.10;99.90
5023;DHT22;2530;47.990;7.866;2023-02-28T01:52:14;1.20;99.90
5023;DHT22;2530;47.990;7.866;2023-02-28T01:54:44;1.30;1.00
5023;DHT22;2530;47.990;7.866;2023-02-28T01:57:15;1.10;99.90
5023;DHT22;2530;47.990;7.866;2023-02-28T02:00:21;1.10;1.00
5023;DHT22;2530;47.990;7.866;2023-02-28T02:02:51;1.40;99.90
5023;DHT22;2530;47.990;7.866;2023-02-28T02:05:21;1.20;1.00
5023;DHT22;2530;47.990;7.866;2023-02-28T02:07:54;1.20;1.00
5023;DHT22;2530;47.990;7.866;2023-02-28T02:10:31;1.20;1.00
5023;DHT22;2530;47.990;7.866;2023-02-28T02:18:52;1.10;1.00
5023;DHT22;2530;47.990;7.866;2023-02-28T02:24:42;1.20;1.00
5023;DHT22;2530;47.990;7.866;2023-02-28T02:27:34;1.40;1.00
5023;DHT22;2530;47.990;7.866;2023-02-28T02:33:06;1.20;1.00
5023;DHT22;2530;47.990;7.866;2023-02-28T02:35:54;1.20;1.00
5023;DHT22;2530;47.990;7.866;2023-02-28T02:41:15;1.20;1.00
5023;DHT22;2530;47.990;7.866;2023-02-28T02:43:49;1.40;1.00
5023;DHT22;2530;47.990;7.866;2023-02-28T02:46:21;1.10;1.00
5023;DHT22;2530;47.990;7.866;2023-02-28T02:48:50;1.20;1.00
5023;DHT22;2530;47.990;7.866;2023-02-28T02:51:19;1.20;1.00
5023;DHT22;2530;47.990;7.866;2023-02-28T02:53:56;1.10;1.00
5023;DHT22;2530;47.990;7.866;2023-02-28T02:56:26;1.50;1.00
5023;DHT22;2530;47.990;7.866;2023-02-28T02:58:56;1.40;1.00
5023;DHT22;2530;47.990;7.866;2023-02-28T03:01:25;1.10;1.00
5023;DHT22;2530;47.990;7.866;2023-02-28T03:03:57;0.70;1.00
5023;DHT22;2530;47.990;7.866;2023-02-28T03:06:24;1.20;1.00
5023;DHT22;2530;47.990;7.866;2023-02-28T03:08:49;1.40;1.00
5023;DHT22;2530;47.990;7.866;2023-02-28T03:11:15;1.30;1.00
5023;DHT22;2530;47.990;7.866;2023-02-28T03:14:11;1.20;1.00
5023;DHT22;2530;47.990;7.866;2023-02-28T03:22:18;1.40;1.00
5023;DHT22;2530;47.990;7.866;2023-02-28T03:24:56;1.20;1.00
5023;DHT22;2530;47.990;7.866;2023-02-28T03:35:14;1.40;1.00
5023;DHT22;2530;47.990;7.866;2023-02-28T03:37:49;1.30;1.00
5023;DHT22;2530;47.990;7.866;2023-02-28T03:40:20;1.50;1.00
5023;DHT22;2530;47.990;7.866;2023-02-28T03:42:49;1.10;99.90
5023;DHT22;2530;47.990;7.866;2023-02-28T03:45:19;1.10;99.90
5023;DHT22;2530;47.990;7.866;2023-02-28T03:47:53;1.20;1.00
5023;DHT22;2530;47.990;7.866;2023-02-28T03:50:38;1.00;1.00
5023;DHT22;2530;47.990;7.866;2023-02-28T03:55:42;1.10;1.00
5023;DHT22;2530;47.990;7.866;2023-02-28T03:58:49;1.10;1.00
5023;DHT22;2530;47.990;7.866;2023-02-28T04:01:17;0.70;1.00
5023;DHT22;2530;47.990;7.866;2023-02-28T04:03:44;0.90;1.00
5023;DHT22;2530;47.990;7.866;2023-02-28T04:06:16;1.20;1.00
5023;DHT22;2530;47.990;7.866;2023-02-28T04:08:42;0.90;1.00
5023;DHT22;2530;47.990;7.866;2023-02-28T04:11:20;1.10;1.00
5023;DHT22;2530;47.990;7.866;2023-02-28T04:13:46;0.80;1.00
5023;DHT22;2530;47.990;7.866;2023-02-28T04:16:12;2.30;44.60
5023;DHT22;2530;47.990;7.866;2023-02-28T04:18:38;0.80;1.00
5023;DHT22;2530;47.990;7.866;2023-02-28T04:21:05;1.00;99.90
5023;DHT22;2530;47.990;7.866;2023-02-28T04:23:31;0.90;1.00
5023;DHT22;2530;47.990;7.866;2023-02-28T04:25:56;0.90;99.90
5023;DHT22;2530;47.990;7.866;2023-02-28T04:28:22;0.80;1.00
5023;DHT22;2530;47.990;7.866;2023-02-28T04:30:53;2.20;99.90
5023;DHT22;2530;47.990;7.866;2023-02-28T04:33:19;0.90;1.00
5023;DHT22;2530;47.990;7.866;2023-02-28T04:35:44;0.80;1.00
5023;DHT22;2530;47.990;7.866;2023-02-28T04:38:10;0.90;1.00
5023;DHT22;2530;47.990;7.866;2023-02-28T04:40:35;0.90;99.90
5023;DHT22;2530;47.990;7.866;2023-02-28T04:43:01;0.50;1.00
5023;DHT22;2530;47.990;7.866;2023-02-28T04:45:26;0.60;99.90
5023;DHT22;2530;47.990;7.866;2023-02-28T04:47:55;0.70;1.00
5023;DHT22;2530;47.990;7.866;2023-02-28T04:50:20;0.70;1.00
5023;DHT22;2530;47.990;7.866;2023-02-28T04:52:46;0.80;1.00
5023;DHT22;2530;47.990;7.866;2023-02-28T04:55:12;0.30;1.00
5023;DHT22;2530;47.990;7.866;2023-02-28T04:57:37;0.10;11.10
5023;DHT22;2530;47.990;7.866;2023-02-28T05:00:03;0.40;1.00
5023;DHT22;2530;47.990;7.866;2023-02-28T05:02:34;0.40;99.90
5023;DHT22;2530;47.990;7.866;2023-02-28T05:05:00;0.40;21.20
5023;DHT22;2530;47.990;7.866;2023-02-28T05:07:26;0.50;1.00
5023;DHT22;2530;47.990;7.866;2023-02-28T05:09:51;0.40;99.90
5023;DHT22;2530;47.990;7.866;2023-02-28T05:12:17;0.40;99.90
5023;DHT22;2530;47.990;7.866;2023-02-28T05:14:42;0.30;99.90
5023;DHT22;2530;47.990;7.866;2023-02-28T05:17:09;0.00;99.90
5023;DHT22;2530;47.990;7.866;2023-02-28T05:19:35;0.20;99.90
5023;DHT22;2530;47.990;7.866;2023-02-28T05:22:01;0.30;1.00
5023;DHT22;2530;47.990;7.866;2023-02-28T05:24:26;0.20;1.00
5023;DHT22;2530;47.990;7.866;2023-02-28T05:26:53;0.40;1.00
5023;DHT22;2530;47.990;7.866;2023-02-28T05:29:19;0.20;1.00
5023;DHT22;2530;47.990;7.866;2023-02-28T05:31:44;0.10;1.00
5023;DHT22;2530;47.990;7.866;2023-02-28T05:34:10;0.00;1.00
5023;DHT22;2530;47.990;7.866;2023-02-28T05:36:38;0.20;1.00
5023;DHT22;2530;47.990;7.866;2023-02-28T05:39:06;0.30;1.00
5023;DHT22;2530;47.990;7.866;2023-02-28T05:41:32;0.00;1.00
5023;DHT22;2530;47.990;7.866;2023-02-28T05:43:58;0.00;1.00
5023;DHT22;2530;47.990;7.866;2023-02-28T05:46:25;0.20;1.00
5023;DHT22;2530;47.990;7.866;2023-02-28T05:48:50;0.40;1.00
5023;DHT22;2530;47.990;7.866;2023-02-28T05:51:17;0.00;1.00
5023;DHT22;2530;47.990;7.866;2023-02-28T05:53:43;0.00;1.00
5023;DHT22;2530;47.990;7.866;2023-02-28T05:56:08;0.10;1.00
5023;DHT22;2530;47.990;7.866;2023-02-28T05:58:34;-0.20;35.40
5023;DHT22;2530;47.990;7.866;2023-02-28T06:01:00;-0.30;37.00
5023;DHT22;2530;47.990;7.866;2023-02-28T06:03:43;0.20;58.90
5023;DHT22;2530;47.990;7.866;2023-02-28T06:06:09;-0.20;92.90
5023;DHT22;2530;47.990;7.866;2023-02-28T06:08:34;-0.10;46.80
5023;DHT22;2530;47.990;7.866;2023-02-28T06:11:03;-0.20;99.90
5023;DHT22;2530;47.990;7.866;2023-02-28T06:13:29;-0.30;93.10
5023;DHT22;2530;47.990;7.866;2023-02-28T06:15:54;-0.30;99.90
5023;DHT22;2530;47.990;7.866;2023-02-28T06:18:20;-0.10;88.30
5023;DHT22;2530;47.990;7.866;2023-02-28T06:20:52;-0.20;81.50
5023;DHT22;2530;47.990;7.866;2023-02-28T06:23:20;-0.20;93.40
5023;DHT22;2530;47.990;7.866;2023-02-28T06:25:46;-0.20;61.20
5023;DHT22;2530;47.990;7.866;2023-02-28T06:28:12;-0.40;42.60
5023;DHT22;2530;47.990;7.866;2023-02-28T06:30:38;0.10;97.40
5023;DHT22;2530;47.990;7.866;2023-02-28T06:33:04;-0.20;56.80
5023;DHT22;2530;47.990;7.866;2023-02-28T06:35:30;-0.10;36.00
5023;DHT22;2530;47.990;7.866;2023-02-28T06:37:56;0.00;8.30
5023;DHT22;2530;47.990;7.866;2023-02-28T06:40:22;0.00;1.00
5023;DHT22;2530;47.990;7.866;2023-02-28T06:42:47;0.20;1.00
5023;DHT22;2530;47.990;7.866;2023-02-28T06:45:13;0.00;1.00
5023;DHT22;2530;47.990;7.866;2023-02-28T06:47:40;1.40;3.90
5023;DHT22;2530;47.990;7.866;2023-02-28T06:50:11;0.00;1.00
5023;DHT22;2530;47.990;7.866;2023-02-28T06:52:37;0.20;1.00
5023;DHT22;2530;47.990;7.866;2023-02-28T06:55:04;0.30;1.00
5023;DHT22;2530;47.990;7.866;2023-02-28T06:57:31;0.40;1.00
5023;DHT22;2530;47.990;7.866;2023-02-28T07:00:02;0.10;1.00
5023;DHT22;2530;47.990;7.866;2023-02-28T07:02:29;0.40;1.00
5023;DHT22;2530;47.990;7.866;2023-02-28T07:07:21;0.80;1.00
5023;DHT22;2530;47.990;7.866;2023-02-28T07:09:47;0.40;1.00
5023;DHT22;2530;47.990;7.866;2023-02-28T07:12:12;0.60;1.00
5023;DHT22;2530;47.990;7.866;2023-02-28T07:14:38;0.30;1.00
5023;DHT22;2530;47.990;7.866;2023-02-28T07:17:03;0.60;1.00
5023;DHT22;2530;47.990;7.866;2023-02-28T07:19:29;0.70;1.00
5023;DHT22;2530;47.990;7.866;2023-02-28T07:21:54;0.70;1.00
5023;DHT22;2530;47.990;7.866;2023-02-28T07:24:20;1.20;1.00
5023;DHT22;2530;47.990;7.866;2023-02-28T07:26:46;0.70;99.90
5023;DHT22;2530;47.990;7.866;2023-02-28T07:29:11;0.60;1.00
5023;DHT22;2530;47.990;7.866;2023-02-28T07:31:39;0.70;99.90
5023;DHT22;2530;47.990;7.866;2023-02-28T07:34:05;0.90;99.90
5023;DHT22;2530;47.990;7.866;2023-02-28T07:36:30;0.80;1.00
5023;DHT22;2530;47.990;7.866;2023-02-28T07:38:56;0.70;99.90
5023;DHT22;2530;47.990;7.866;2023-02-28T07:41:23;0.60;1.00
5023;DHT22;2530;47.990;7.866;2023-02-28T07:43:53;0.80;99.90
5023;DHT22;2530;47.990;7.866;2023-02-28T07:46:19;1.20;8.50
5023;DHT22;2530;47.990;7.866;2023-02-28T07:48:46;1.20;99.90
5023;DHT22;2530;47.990;7.866;2023-02-28T07:51:12;1.30;61.30
5023;DHT22;2530;47.990;7.866;2023-02-28T07:53:38;1.30;99.90
5023;DHT22;2530;47.990;7.866;2023-02-28T07:56:04;1.10;1.00
5023;DHT22;2530;47.990;7.866;2023-02-28T07:58:30;1.30;99.90
5023;DHT22;2530;47.990;7.866;2023-02-28T08:00:56;3.10;99.90
5023;DHT22;2530;47.990;7.866;2023-02-28T08:03:22;1.70;1.00
5023;DHT22;2530;47.990;7.866;2023-02-28T08:05:48;1.70;99.90
5023;DHT22;2530;47.990;7.866;2023-02-28T08:08:15;1.60;99.90
5023;DHT22;2530;47.990;7.866;2023-02-28T08:10:41;1.70;24.20
5023;DHT22;2530;47.990;7.866;2023-02-28T08:13:07;1.80;1.00
5023;DHT22;2530;47.990;7.866;2023-02-28T08:15:33;1.60;1.00
5023;DHT22;2530;47.990;7.866;2023-02-28T08:17:58;1.70;46.90
5023;DHT22;2530;47.990;7.866;2023-02-28T08:20:24;2.10;99.90
5023;DHT22;2530;47.990;7.866;2023-02-28T08:22:50;2.10;1.00
5023;DHT22;2530;47.990;7.866;2023-02-28T08:25:16;2.00;1.00
5023;DHT22;2530;47.990;7.866;2023-02-28T08:27:41;2.10;1.00
5023;DHT22;2530;47.990;7.866;2023-02-28T08:30:09;1.80;1.00
5023;DHT22;2530;47.990;7.866;2023-02-28T08:32:35;1.90;99.90
5023;DHT22;2530;47.990;7.866;2023-02-28T08:35:01;1.70;1.00
5023;DHT22;2530;47.990;7.866;2023-02-28T08:37:28;2.10;1.00
5023;DHT22;2530;47.990;7.866;2023-02-28T08:39:54;1.80;1.00
5023;DHT22;2530;47.990;7.866;2023-02-28T08:42:19;2.30;99.90
5023;DHT22;2530;47.990;7.866;2023-02-28T08:44:45;2.30;99.90
5023;DHT22;2530;47.990;7.866;2023-02-28T08:47:11;2.40;99.90
5023;DHT22;2530;47.990;7.866;2023-02-28T08:49:37;2.30;1.00
5023;DHT22;2530;47.990;7.866;2023-02-28T08:52:03;2.50;1.00
5023;DHT22;2530;47.990;7.866;2023-02-28T08:54:28;2.40;1.00
5023;DHT22;2530;47.990;7.866;2023-02-28T08:56:56;2.60;11.30
5023;DHT22;2530;47.990;7.866;2023-02-28T08:59:22;2.50;1.00
5023;DHT22;2530;47.990;7.866;2023-02-28T09:01:48;2.60;1.00
5023;DHT22;2530;47.990;7.866;2023-02-28T09:04:14;2.40;1.00
5023;DHT22;2530;47.990;7.866;2023-02-28T09:06:39;2.60;1.00
5023;DHT22;2530;47.990;7.866;2023-02-28T09:09:05;2.20;1.00
5023;DHT22;2530;47.990;7.866;2023-02-28T09:11:33;2.10;1.00
5023;DHT22;2530;47.990;7.866;2023-02-28T09:13:59;2.20;1.00
5023;DHT22;2530;47.990;7.866;2023-02-28T09:16:26;2.60;1.00
5023;DHT22;2530;47.990;7.866;2023-02-28T09:18:52;2.10;1.00
5023;DHT22;2530;47.990;7.866;2023-02-28T09:21:19;2.40;1.00
5023;DHT22;2530;47.990;7.866;2023-02-28T09:23:46;2.30;1.00
5023;DHT22;2530;47.990;7.866;2023-02-28T09:26:17;2.10;1.00
5023;DHT22;2530;47.990;7.866;2023-02-28T09:28:43;4.40;1.00
5023;DHT22;2530;47.990;7.866;2023-02-28T09:31:17;3.30;80.10
5023;DHT22;2530;47.990;7.866;2023-02-28T09:33:46;3.10;1.00
5023;DHT22;2530;47.990;7.866;2023-02-28T09:36:12;2.50;1.00
5023;DHT22;2530;47.990;7.866;2023-02-28T09:38:37;3.10;1.00
5023;DHT22;2530;47.990;7.866;2023-02-28T09:41:12;2.60;1.00
5023;DHT22;2530;47.990;7.866;2023-02-28T09:43:40;2.30;1.00
5023;DHT22;2530;47.990;7.866;2023-02-28T09:46:18;1.60;1.00
5023;DHT22;2530;47.990;7.866;2023-02-28T09:48:48;2.70;1.00
5023;DHT22;2530;47.990;7.866;2023-02-28T09:54:24;2.90;1.00
5023;DHT22;2530;47.990;7.866;2023-02-28T09:57:17;2.80;1.00
5023;DHT22;2530;47.990;7.866;2023-02-28T10:02:39;3.10;1.00
5023;DHT22;2530;47.990;7.866;2023-02-28T10:05:13;3.10;1.00
5023;DHT22;2530;47.990;7.866;2023-02-28T10:08:07;3.40;1.00
5023;DHT22;2530;47.990;7.866;2023-02-28T10:13:25;3.40;1.00
5023;DHT22;2530;47.990;7.866;2023-02-28T10:15:55;3.70;1.00
5023;DHT22;2530;47.990;7.866;2023-02-28T10:18:25;3.50;1.00
5023;DHT22;2530;47.990;7.866;2023-02-28T10:20:53;3.70;1.00
5023;DHT22;2530;47.990;7.866;2023-02-28T10:23:26;3.80;1.00
5023;DHT22;2530;47.990;7.866;2023-02-28T10:26:01;3.60;1.00
5023;DHT22;2530;47.990;7.866;2023-02-28T10:28:30;3.80;1.00
5023;DHT22;2530;47.990;7.866;2023-02-28T10:30:57;3.70;1.00
5023;DHT22;2530;47.990;7.866;2023-02-28T10:33:29;3.70;1.00
5023;DHT22;2530;47.990;7.866;2023-02-28T10:35:55;3.70;1.00
5023;DHT22;2530;47.990;7.866;2023-02-28T10:38:24;3.90;1.00
5023;DHT22;2530;47.990;7.866;2023-02-28T10:40:50;3.80;1.00
5023;DHT22;2530;47.990;7.866;2023-02-28T10:43:18;4.10;1.00
5023;DHT22;2530;47.990;7.866;2023-02-28T10:53:28;4.50;1.00
5023;DHT22;2530;47.990;7.866;2023-02-28T11:06:42;5.30;99.90
5023;DHT22;2530;47.990;7.866;2023-02-28T11:11:50;5.40;99.90
5023;DHT22;2530;47.990;7.866;2023-02-28T11:14:24;5.60;99.90
5023;DHT22;2530;47.990;7.866;2023-02-28T11:16:51;5.20;99.90
5023;DHT22;2530;47.990;7.866;2023-02-28T11:19:24;4.90;99.90
5023;DHT22;2530;47.990;7.866;2023-02-28T11:22:01;5.00;99.90
5023;DHT22;2530;47.990;7.866;2023-02-28T11:24:31;5.90;99.90
5023;DHT22;2530;47.990;7.866;2023-02-28T11:26:59;6.20;99.90
5023;DHT22;2530;47.990;7.866;2023-02-28T11:29:28;5.70;99.90
5023;DHT22;2530;47.990;7.866;2023-02-28T11:34:38;7.20;99.90
5023;DHT22;2530;47.990;7.866;2023-02-28T11:37:09;7.30;99.90
5023;DHT22;2530;47.990;7.866;2023-02-28T11:39:36;7.90;99.90
5023;DHT22;2530;47.990;7.866;2023-02-28T11:45:20;7.90;99.90
5023;DHT22;2530;47.990;7.866;2023-02-28T11:48:00;7.50;99.90
5023;DHT22;2530;47.990;7.866;2023-02-28T11:53:22;8.30;99.90
5023;DHT22;2530;47.990;7.866;2023-02-28T12:04:10;5.50;99.90
5023;DHT22;2530;47.990;7.866;2023-02-28T12:12:20;5.50;99.90
5023;DHT22;2530;47.990;7.866;2023-02-28T12:26:31;5.00;99.90
5023;DHT22;2530;47.990;7.866;2023-02-28T12:29:47;5.10;99.90
5023;DHT22;2530;47.990;7.866;2023-02-28T12:32:06;5.10;99.90
5023;DHT22;2530;47.990;7.866;2023-02-28T12:34:42;4.90;99.90
5023;DHT22;2530;47.990;7.866;2023-02-28T12:37:21;4.90;99.90
5023;DHT22;2530;47.990;7.866;2023-02-28T12:39:51;5.00;99.90
5023;DHT22;2530;47.990;7.866;2023-02-28T12:42:28;5.10;99.90
5023;DHT22;2530;47.990;7.866;2023-02-28T12:45:05;5.30;99.90
5023;DHT22;2530;47.990;7.866;2023-02-28T12:47:34;5.50;99.90
5023;DHT22;2530;47.990;7.866;2023-02-28T12:50:08;5.80;99.90
5023;DHT22;2530;47.990;7.866;2023-02-28T12:53:02;6.40;99.90
5023;DHT22;2530;47.990;7.866;2023-02-28T13:09:30;6.10;99.90
5023;DHT22;2530;47.990;7.866;2023-02-28T13:11:56;6.60;99.90
5023;DHT22;2530;47.990;7.866;2023-02-28T13:17:09;6.50;99.90
5023;DHT22;2530;47.990;7.866;2023-02-28T13:22:18;6.70;99.90
5023;DHT22;2530;47.990;7.866;2023-02-28T13:24:50;6.50;99.90
5023;DHT22;2530;47.990;7.866;2023-02-28T13:27:33;6.80;99.90
5023;DHT22;2530;47.990;7.866;2023-02-28T13:29:59;7.30;99.90
5023;DHT22;2530;47.990;7.866;2023-02-28T13:39:50;9.00;97.60
5023;DHT22;2530;47.990;7.866;2023-02-28T13:45:22;7.50;92.90
5023;DHT22;2530;47.990;7.866;2023-02-28T13:48:20;7.10;99.90
5023;DHT22;2530;47.990;7.866;2023-02-28T13:50:49;7.20;99.90
5023;DHT22;2530;47.990;7.866;2023-02-28T14:06:50;9.00;88.00
5023;DHT22;2530;47.990;7.866;2023-02-28T14:09:18;8.70;76.90
5023;DHT22;2530;47.990;7.866;2023-02-28T14:11:47;7.70;76.00
5023;DHT22;2530;47.990;7.866;2023-02-28T14:17:04;8.50;70.60
5023;DHT22;2530;47.990;7.866;2023-02-28T14:19:32;7.30;66.80
5023;DHT22;2530;47.990;7.866;2023-02-28T14:24:59;8.20;83.40
5023;DHT22;2530;47.990;7.866;2023-02-28T14:27:53;8.80;99.90
5023;DHT22;2530;47.990;7.866;2023-02-28T14:33:22;9.80;52.80
5023;DHT22;2530;47.990;7.866;2023-02-28T14:39:12;11.10;35.30
5023;DHT22;2530;47.990;7.866;2023-02-28T14:41:40;10.40;32.80
5023;DHT22;2530;47.990;7.866;2023-02-28T14:46:48;10.00;32.30
5023;DHT22;2530;47.990;7.866;2023-02-28T14:49:30;9.90;28.80
5023;DHT22;2530;47.990;7.866;2023-02-28T14:54:40;9.90;27.60
5023;DHT22;2530;47.990;7.866;2023-02-28T14:57:06;9.40;24.80
5023;DHT22;2530;47.990;7.866;2023-02-28T14:59:45;8.80;91.20
5023;DHT22;2530;47.990;7.866;2023-02-28T15:02:21;8.90;31.40
5023;DHT22;2530;47.990;7.866;2023-02-28T15:04:58;8.20;28.90
5023;DHT22;2530;47.990;7.866;2023-02-28T15:07:24;7.90;99.90
5023;DHT22;2530;47.990;7.866;2023-02-28T15:10:19;7.90;43.40
5023;DHT22;2530;47.990;7.866;2023-02-28T15:15:17;8.50;45.80
5023;DHT22;2530;47.990;7.866;2023-02-28T15:17:49;9.00;37.30
5023;DHT22;2530;47.990;7.866;2023-02-28T15:20:17;8.90;99.90
5023;DHT22;2530;47.990;7.866;2023-02-28T15:22:44;9.80;30.00
5023;DHT22;2530;47.990;7.866;2023-02-28T15:25:15;9.20;27.50
5023;DHT22;2530;47.990;7.866;2023-02-28T15:27:46;9.20;24.20
5023;DHT22;2530;47.990;7.866;2023-02-28T15:30:19;9.10;99.90
5023;DHT22;2530;47.990;7.866;2023-02-28T15:32:48;11.00;97.50
5023;DHT22;2530;47.990;7.866;2023-02-28T15:35:28;10.60;18.80
5023;DHT22;2530;47.990;7.866;2023-02-28T15:37:57;10.20;99.90
5023;DHT22;2530;47.990;7.866;2023-02-28T15:40:26;10.40;99.90
5023;DHT22;2530;47.990;7.866;2023-02-28T15:43:11;8.60;99.90
5023;DHT22;2530;47.990;7.866;2023-02-28T15:45:48;9.80;20.30
5023;DHT22;2530;47.990;7.866;2023-02-28T15:50:40;9.70;18.30
5023;DHT22;2530;47.990;7.866;2023-02-28T15:53:16;9.40;24.00
5023;DHT22;2530;47.990;7.866;2023-02-28T15:55:42;9.00;19.00
5023;DHT22;2530;47.990;7.866;2023-02-28T15:58:10;9.00;99.90
5023;DHT22;2530;47.990;7.866;2023-02-28T16:00:37;9.80;99.90
5023;DHT22;2530;47.990;7.866;2023-02-28T16:03:24;9.50;14.20
5023;DHT22;2530;47.990;7.866;2023-02-28T16:06:53;8.10;17.80
5023;DHT22;2530;47.990;7.866;2023-02-28T16:08:53;8.10;21.40
5023;DHT22;2530;47.990;7.866;2023-02-28T16:11:20;8.20;99.90
5023;DHT22;2530;47.990;7.866;2023-02-28T16:13:47;7.80;99.90
5023;DHT22;2530;47.990;7.866;2023-02-28T16:16:21;7.90;99.90
5023;DHT22;2530;47.990;7.866;2023-02-28T16:18:48;8.10;26.30
5023;DHT22;2530;47.990;7.866;2023-02-28T16:21:13;8.50;25.30
5023;DHT22;2530;47.990;7.866;2023-02-28T16:23:39;7.00;99.90
5023;DHT22;2530;47.990;7.866;2023-02-28T16:26:05;6.30;45.50
5023;DHT22;2530;47.990;7.866;2023-02-28T16:28:33;5.30;99.90
5023;DHT22;2530;47.990;7.866;2023-02-28T16:31:01;5.60;99.90
5023;DHT22;2530;47.990;7.866;2023-02-28T16:33:30;5.30;99.90
5023;DHT22;2530;47.990;7.866;2023-02-28T16:35:55;5.10;99.90
5023;DHT22;2530;47.990;7.866;2023-02-28T16:38:21;5.40;99.90
5023;DHT22;2530;47.990;7.866;2023-02-28T16:40:49;4.60;99.90
5023;DHT22;2530;47.990;7.866;2023-02-28T16:43:18;4.80;99.90
5023;DHT22;2530;47.990;7.866;2023-02-28T16:45:45;4.50;99.90
5023;DHT22;2530;47.990;7.866;2023-02-28T16:48:15;4.60;99.90
5023;DHT22;2530;47.990;7.866;2023-02-28T16:50:42;4.20;1.00
5023;DHT22;2530;47.990;7.866;2023-02-28T16:53:08;4.40;1.00
5023;DHT22;2530;47.990;7.866;2023-02-28T16:55:34;4.50;1.00
5023;DHT22;2530;47.990;7.866;2023-02-28T16:58:01;4.50;1.00
5023;DHT22;2530;47.990;7.866;2023-02-28T17:00:29;4.20;99.90
5023;DHT22;2530;47.990;7.866;2023-02-28T17:02:56;4.10;1.00
5023;DHT22;2530;47.990;7.866;2023-02-28T17:05:22;3.90;1.00
5023;DHT22;2530;47.990;7.866;2023-02-28T17:07:48;4.00;1.00
5023;DHT22;2530;47.990;7.866;2023-02-28T17:10:25;4.00;1.00
5023;DHT22;2530;47.990;7.866;2023-02-28T17:12:51;3.70;1.00
5023;DHT22;2530;47.990;7.866;2023-02-28T17:15:19;3.60;1.00
5023;DHT22;2530;47.990;7.866;2023-02-28T17:17:45;3.80;1.00
5023;DHT22;2530;47.990;7.866;2023-02-28T17:20:16;3.70;1.00
5023;DHT22;2530;47.990;7.866;2023-02-28T17:22:42;3.70;1.00
5023;DHT22;2530;47.990;7.866;2023-02-28T17:25:09;4.90;1.00
5023;DHT22;2530;47.990;7.866;2023-02-28T17:27:35;3.40;1.00
5023;DHT22;2530;47.990;7.866;2023-02-28T17:30:02;3.40;1.00
5023;DHT22;2530;47.990;7.866;2023-02-28T17:32:28;3.50;1.00
5023;DHT22;2530;47.990;7.866;2023-02-28T17:34:53;3.20;1.00
5023;DHT22;2530;47.990;7.866;2023-02-28T17:37:19;3.30;1.00
5023;DHT22;2530;47.990;7.866;2023-02-28T17:39:45;3.50;9.20
5023;DHT22;2530;47.990;7.866;2023-02-28T17:42:10;3.30;1.00
5023;DHT22;2530;47.990;7.866;2023-02-28T17:44:36;3.10;99.90
5023;DHT22;2530;47.990;7.866;2023-02-28T17:47:03;2.90;1.00
5023;DHT22;2530;47.990;7.866;2023-02-28T17:49:28;3.00;1.00
5023;DHT22;2530;47.990;7.866;2023-02-28T17:51:54;2.90;1.00
5023;DHT22;2530;47.990;7.866;2023-02-28T17:54:20;2.90;1.00
5023;DHT22;2530;47.990;7.866;2023-02-28T17:56:45;2.40;99.90
5023;DHT22;2530;47.990;7.866;2023-02-28T17:59:12;2.40;1.00
5023;DHT22;2530;47.990;7.866;2023-02-28T18:01:38;2.40;6.70
5023;DHT22;2530;47.990;7.866;2023-02-28T18:04:03;2.40;39.20
5023;DHT22;2530;47.990;7.866;2023-02-28T18:06:43;2.30;4.80
5023;DHT22;2530;47.990;7.866;2023-02-28T18:09:17;2.10;5.60
5023;DHT22;2530;47.990;7.866;2023-02-28T18:11:43;2.10;99.90
5023;DHT22;2530;47.990;7.866;2023-02-28T18:14:14;2.40;94.10
5023;DHT22;2530;47.990;7.866;2023-02-28T18:16:40;2.00;99.90
5023;DHT22;2530;47.990;7.866;2023-02-28T18:19:06;2.10;99.90
5023;DHT22;2530;47.990;7.866;2023-02-28T18:21:33;1.90;99.90
5023;DHT22;2530;47.990;7.866;2023-02-28T18:24:00;1.80;1.00
5023;DHT22;2530;47.990;7.866;2023-02-28T18:26:25;1.80;99.90
5023;DHT22;2530;47.990;7.866;2023-02-28T18:28:51;1.90;1.00
5023;DHT22;2530;47.990;7.866;2023-02-28T18:31:19;1.80;23.40
5023;DHT22;2530;47.990;7.866;2023-02-28T18:33:48;1.80;1.00
5023;DHT22;2530;47.990;7.866;2023-02-28T18:36:14;2.10;1.00
5023;DHT22;2530;47.990;7.866;2023-02-28T18:38:40;1.80;99.90
5023;DHT22;2530;47.990;7.866;2023-02-28T18:41:07;1.50;1.00
5023;DHT22;2530;47.990;7.866;2023-02-28T18:43:34;1.60;99.90
5023;DHT22;2530;47.990;7.866;2023-02-28T18:46:08;2.20;1.00
5023;DHT22;2530;47.990;7.866;2023-02-28T18:48:34;1.70;66.30
5023;DHT22;2530;47.990;7.866;2023-02-28T18:51:18;1.50;1.00
5023;DHT22;2530;47.990;7.866;2023-02-28T18:53:44;1.40;99.90
5023;DHT22;2530;47.990;7.866;2023-02-28T18:56:12;1.50;1.00
5023;DHT22;2530;47.990;7.866;2023-02-28T18:58:39;1.20;99.90
5023;DHT22;2530;47.990;7.866;2023-02-28T19:01:21;1.30;99.90
5023;DHT22;2530;47.990;7.866;2023-02-28T19:03:47;1.10;99.90
5023;DHT22;2530;47.990;7.866;2023-02-28T19:06:13;1.00;1.00
5023;DHT22;2530;47.990;7.866;2023-02-28T19:08:39;1.10;1.00
5023;DHT22;2530;47.990;7.866;2023-02-28T19:11:09;0.90;1.00
5023;DHT22;2530;47.990;7.866;2023-02-28T19:13:35;0.90;1.00
5023;DHT22;2530;47.990;7.866;2023-02-28T19:16:02;1.10;1.00
5023;DHT22;2530;47.990;7.866;2023-02-28T19:18:28;0.90;1.00
5023;DHT22;2530;47.990;7.866;2023-02-28T19:20:53;1.00;1.00
5023;DHT22;2530;47.990;7.866;2023-02-28T19:23:19;0.80;1.00
5023;DHT22;2530;47.990;7.866;2023-02-28T19:25:44;0.60;1.00
5023;DHT22;2530;47.990;7.866;2023-02-28T19:28:10;0.90;1.00
5023;DHT22;2530;47.990;7.866;2023-02-28T19:30:35;0.60;1.00